Time;durP1;ratioP1;P1;durP2;ratioP2;P2;SDS_P1;SDS_P2;PMS_P1;PMS_P2;Temp;Humidity;BMP_temperature;BMP_pressure;BME280_temperature;BME280_humidity;BME280_pressure;Samples;Min_cycle;Max_cycle;Signal;HPM_P1;HPM_P2
2022/01/31 00:00:40;;;;;;;12.55;2.83;;;5.50;58.70;;;;;;5132203;28;20085;-66
2022/01/31 00:03:05;;;;;;;19.40;3.67;;;5.40;58.80;;;;;;5132657;28;20035;-66
2022/01/31 00:05:31;;;;;;;18.00;3.47;;;5.40;58.80;;;;;;5132317;28;20038;-66
2022/01/31 00:07:57;;;;;;;17.15;3.13;;;5.40;58.50;;;;;;5132615;28;20024;-66
2022/01/31 00:10:30;;;;;;;13.23;3.05;;;5.40;58.60;;;;;;5132282;28;20023;-66
2022/01/31 00:13:05;;;;;;;19.02;3.17;;;5.40;58.40;;;;;;5132989;28;20077;-66
2022/01/31 00:15:31;;;;;;;15.93;3.55;;;5.40;58.30;;;;;;5131808;28;20375;-67
2022/01/31 00:17:57;;;;;;;18.52;3.13;;;5.40;58.10;;;;;;5132540;28;20032;-66
2022/01/31 00:20:23;;;;;;;11.02;2.58;;;5.40;58.30;;;;;;5132400;28;20029;-67
2022/01/31 00:22:49;;;;;;;12.82;3.72;;;5.40;58.40;;;;;;5133780;27;20035;-67
2022/01/31 00:25:15;;;;;;;16.45;3.58;;;5.40;58.40;;;;;;5136263;27;20027;-67
2022/01/31 00:27:40;;;;;;;15.75;3.42;;;5.30;58.80;;;;;;5135358;27;20023;-65
2022/01/31 00:30:07;;;;;;;11.82;2.92;;;5.30;58.60;;;;;;5136052;27;20058;-66
2022/01/31 00:32:32;;;;;;;16.27;3.13;;;5.30;58.90;;;;;;5135338;27;20043;-66
2022/01/31 00:34:58;;;;;;;10.10;2.67;;;5.30;58.40;;;;;;5135975;27;20443;-67
2022/01/31 00:37:24;;;;;;;18.77;4.03;;;5.30;58.30;;;;;;5135689;27;20068;-66
2022/01/31 00:39:51;;;;;;;14.07;4.25;;;5.30;58.20;;;;;;5135329;27;20054;-67
2022/01/31 00:42:19;;;;;;;12.15;3.78;;;5.30;57.50;;;;;;5135794;27;20057;-67
2022/01/31 00:44:53;;;;;;;13.52;3.70;;;5.30;57.40;;;;;;5135176;27;20031;-67
2022/01/31 00:47:25;;;;;;;14.40;3.15;;;5.30;57.50;;;;;;5135801;27;20119;-67
2022/01/31 00:49:55;;;;;;;13.57;2.90;;;5.30;58.20;;;;;;5134366;27;20180;-67
2022/01/31 00:52:21;;;;;;;12.95;2.90;;;5.30;58.40;;;;;;5117221;27;20039;-67
2022/01/31 00:54:47;;;;;;;14.98;3.33;;;5.20;59.10;;;;;;5114340;28;20047;-67
2022/01/31 00:57:13;;;;;;;22.48;3.53;;;5.20;59.60;;;;;;5115171;28;20083;-67
2022/01/31 00:59:39;;;;;;;16.55;3.42;;;5.10;60.20;;;;;;5114405;28;20020;-67
2022/01/31 01:02:04;;;;;;;13.05;2.90;;;5.10;60.40;;;;;;5114769;28;20036;-67
2022/01/31 01:04:30;;;;;;;13.00;2.88;;;5.00;60.60;;;;;;5114832;28;20062;-67
2022/01/31 01:06:56;;;;;;;15.75;3.25;;;5.00;61.20;;;;;;5114174;28;20028;-67
2022/01/31 01:09:22;;;;;;;11.77;2.80;;;5.00;61.30;;;;;;5114690;28;20039;-68
2022/01/31 01:11:48;;;;;;;12.70;3.05;;;4.90;61.60;;;;;;5113889;28;20035;-67
2022/01/31 01:14:13;;;;;;;20.00;3.22;;;4.90;61.90;;;;;;5114873;28;20035;-67
2022/01/31 01:16:39;;;;;;;19.90;3.67;;;4.80;62.00;;;;;;5113813;28;20028;-68
2022/01/31 01:19:04;;;;;;;13.45;3.22;;;4.80;62.40;;;;;;5114290;28;20028;-68
2022/01/31 01:21:30;;;;;;;16.80;3.20;;;4.70;62.40;;;;;;5114480;28;20032;-67
2022/01/31 01:24:15;;;;;;;17.30;3.83;;;4.70;62.50;;;;;;5113933;28;20031;-67
2022/01/31 01:26:42;;;;;;;15.63;3.22;;;4.70;62.80;;;;;;5113879;28;20050;-66
2022/01/31 01:29:07;;;;;;;11.45;3.28;;;4.70;62.60;;;;;;5114466;28;20371;-67
2022/01/31 01:31:33;;;;;;;12.65;2.67;;;4.70;62.70;;;;;;5122577;27;20019;-67
2022/01/31 01:33:59;;;;;;;18.65;3.47;;;4.60;62.70;;;;;;5134250;27;20027;-67
2022/01/31 01:36:24;;;;;;;13.98;3.20;;;4.60;62.70;;;;;;5134783;27;20019;-67
2022/01/31 01:38:50;;;;;;;14.63;3.17;;;4.50;62.70;;;;;;5134269;27;20100;-67
2022/01/31 01:41:16;;;;;;;14.32;3.67;;;4.50;62.50;;;;;;5134746;27;20462;-67
2022/01/31 01:43:42;;;;;;;14.23;3.53;;;4.50;62.70;;;;;;5133856;27;20368;-67
2022/01/31 01:46:08;;;;;;;19.58;3.63;;;4.50;62.70;;;;;;5134422;27;20033;-66
2022/01/31 01:48:34;;;;;;;19.05;3.47;;;4.50;62.90;;;;;;5134395;27;20023;-66
2022/01/31 01:50:59;;;;;;;14.82;2.80;;;4.50;62.90;;;;;;5134725;27;20035;-66
2022/01/31 01:53:25;;;;;;;19.17;3.67;;;4.50;62.60;;;;;;5134169;27;20486;-66
2022/01/31 01:55:53;;;;;;;22.08;4.53;;;4.50;62.10;;;;;;5133851;27;20058;-66
2022/01/31 01:58:21;;;;;;;20.40;3.60;;;4.50;62.20;;;;;;5134624;27;20035;-67
2022/01/31 02:00:58;;;;;;;20.35;3.70;;;4.60;62.00;;;;;;5133748;27;20027;-67
2022/01/31 02:03:26;;;;;;;15.65;3.60;;;4.50;61.70;;;;;;5134158;27;20514;-66
2022/01/31 02:05:52;;;;;;;23.05;3.75;;;4.50;61.80;;;;;;5133512;27;20027;-67
2022/01/31 02:08:18;;;;;;;17.42;3.90;;;4.50;61.80;;;;;;5133889;27;20030;-66
2022/01/31 02:10:44;;;;;;;16.95;3.60;;;4.50;61.70;;;;;;5133506;27;20076;-66
2022/01/31 02:13:11;;;;;;;19.33;3.47;;;4.50;61.70;;;;;;5134393;27;20027;-66
2022/01/31 02:15:38;;;;;;;14.65;3.05;;;4.50;61.80;;;;;;5133335;27;20080;-66
2022/01/31 02:18:26;;;;;;;15.38;3.25;;;4.50;61.60;;;;;;5133994;27;20031;-66
2022/01/31 02:20:52;;;;;;;18.80;3.60;;;4.50;61.60;;;;;;5133338;27;20020;-68
2022/01/31 02:23:18;;;;;;;18.20;3.58;;;4.50;61.40;;;;;;5133768;27;20045;-66
2022/01/31 02:25:55;;;;;;;14.88;2.85;;;4.50;61.40;;;;;;5133260;27;20033;-67
2022/01/31 02:28:23;;;;;;;17.10;3.72;;;4.50;61.20;;;;;;5133689;27;20019;-66
2022/01/31 02:30:49;;;;;;;19.85;3.63;;;4.50;61.00;;;;;;5132782;27;20466;-67
2022/01/31 02:33:15;;;;;;;14.45;3.70;;;4.50;60.80;;;;;;5133923;27;20026;-68
2022/01/31 02:35:41;;;;;;;16.23;4.20;;;4.50;60.80;;;;;;5132988;27;20028;-68
2022/01/31 02:38:06;;;;;;;17.55;3.42;;;4.50;60.90;;;;;;5133689;27;20019;-68
2022/01/31 02:40:32;;;;;;;19.77;3.47;;;4.50;60.90;;;;;;5133511;27;20024;-67
2022/01/31 02:42:58;;;;;;;12.63;2.75;;;4.50;60.90;;;;;;5132782;27;20050;-67
2022/01/31 02:45:23;;;;;;;18.73;3.42;;;4.60;60.90;;;;;;5132807;27;20437;-67
2022/01/31 02:47:55;;;;;;;13.57;3.05;;;4.50;60.70;;;;;;5127667;27;20019;-66
2022/01/31 02:50:21;;;;;;;13.60;3.15;;;4.60;60.80;;;;;;5112893;28;20022;-67
2022/01/31 02:52:49;;;;;;;21.27;3.78;;;4.60;60.80;;;;;;5112150;28;20027;-67
2022/01/31 02:55:17;;;;;;;14.35;3.10;;;4.60;60.80;;;;;;5112544;28;20051;-67
2022/01/31 02:57:42;;;;;;;14.93;3.20;;;4.60;60.70;;;;;;5112153;28;20028;-66
2022/01/31 03:00:10;;;;;;;16.02;3.22;;;4.50;60.60;;;;;;5112345;28;20476;-67
2022/01/31 03:02:36;;;;;;;17.63;3.15;;;4.50;60.40;;;;;;5112459;28;20069;-67
2022/01/31 03:05:03;;;;;;;14.82;3.00;;;4.50;60.80;;;;;;5112009;28;20026;-67
2022/01/31 03:07:30;;;;;;;17.65;4.10;;;4.50;60.00;;;;;;5112564;28;20027;-67
2022/01/31 03:10:14;;;;;;;18.20;3.60;;;4.50;60.10;;;;;;5093704;28;20358;-67
2022/01/31 03:12:40;;;;;;;19.02;3.47;;;4.50;60.00;;;;;;5112117;28;20023;-67
2022/01/31 03:15:06;;;;;;;17.58;3.53;;;4.50;60.00;;;;;;5112377;28;20026;-67
2022/01/31 03:17:31;;;;;;;17.98;3.28;;;4.50;60.00;;;;;;5094138;28;20027;-67
2022/01/31 03:19:57;;;;;;;15.52;2.95;;;4.50;59.70;;;;;;5111505;28;20075;-69
2022/01/31 03:22:24;;;;;;;11.23;2.55;;;4.50;59.90;;;;;;5112497;28;20067;-67
2022/01/31 03:24:50;;;;;;;20.77;3.72;;;4.50;59.60;;;;;;5111906;28;20098;-67
2022/01/31 03:27:15;;;;;;;18.63;3.78;;;4.50;59.70;;;;;;5112405;28;20103;-66
2022/01/31 03:29:42;;;;;;;14.90;3.10;;;4.50;59.80;;;;;;5111679;28;20363;-66
2022/01/31 03:32:07;;;;;;;17.50;3.72;;;4.50;59.80;;;;;;5130179;28;20027;-66
2022/01/31 03:34:33;;;;;;;13.98;3.85;;;4.50;59.80;;;;;;5132624;28;20383;-66
2022/01/31 03:36:58;;;;;;;18.48;3.40;;;4.50;60.00;;;;;;5132306;28;20023;-67
2022/01/31 03:39:24;;;;;;;14.25;3.42;;;4.40;60.00;;;;;;5132861;28;20455;-67
2022/01/31 03:41:50;;;;;;;20.40;3.97;;;4.40;60.30;;;;;;5113647;28;20085;-67
2022/01/31 03:44:15;;;;;;;21.92;4.13;;;4.40;60.40;;;;;;5114334;28;20076;-67
2022/01/31 03:46:41;;;;;;;17.65;3.63;;;4.40;60.40;;;;;;5132517;28;20094;-67
2022/01/31 03:49:07;;;;;;;21.60;3.75;;;4.40;60.70;;;;;;5132686;28;20023;-67
2022/01/31 03:51:33;;;;;;;17.23;3.67;;;4.40;60.70;;;;;;5132390;28;20019;-67
2022/01/31 03:53:58;;;;;;;19.02;3.80;;;4.40;61.00;;;;;;5131758;28;20477;-67
2022/01/31 03:56:24;;;;;;;20.92;3.22;;;4.40;61.30;;;;;;5132788;27;20498;-68
2022/01/31 03:58:49;;;;;;;19.20;4.22;;;4.40;61.70;;;;;;5135696;27;20053;-67
2022/01/31 04:01:15;;;;;;;16.55;3.00;;;4.30;62.30;;;;;;5136354;27;20103;-67
2022/01/31 04:03:40;;;;;;;17.50;2.95;;;4.40;62.90;;;;;;5136398;27;20118;-68
2022/01/31 04:06:06;;;;;;;19.58;3.22;;;4.40;63.60;;;;;;5135856;27;20073;-67
2022/01/31 04:08:32;;;;;;;14.65;3.20;;;4.30;63.90;;;;;;5136465;27;20106;-67
2022/01/31 04:10:58;;;;;;;24.98;4.07;;;4.30;64.50;;;;;;5135704;27;20034;-67
2022/01/31 04:13:26;;;;;;;25.88;3.92;;;4.30;65.10;;;;;;5136009;27;20023;-67
2022/01/31 04:15:52;;;;;;;18.95;3.45;;;4.20;65.40;;;;;;5117771;27;20022;-68
2022/01/31 04:18:18;;;;;;;17.30;3.85;;;4.20;65.70;;;;;;5135988;27;20360;-67
2022/01/31 04:20:43;;;;;;;17.70;3.65;;;4.20;66.30;;;;;;5136246;27;20023;-67
2022/01/31 04:23:15;;;;;;;14.07;3.40;;;4.20;66.90;;;;;;5117494;27;20047;-68
2022/01/31 04:25:52;;;;;;;15.18;2.70;;;4.20;67.30;;;;;;5135877;27;20444;-67
2022/01/31 04:28:27;;;;;;;17.70;3.67;;;4.20;68.00;;;;;;5136087;27;20532;-68
2022/01/31 04:33:39;;;;;;;13.52;2.97;;;4.20;68.50;;;;;;5135868;27;20049;-66
2022/01/31 04:36:10;;;;;;;12.73;2.70;;;4.20;69.00;;;;;;5134745;27;20432;-67
2022/01/31 04:38:36;;;;;;;11.23;3.22;;;4.20;69.30;;;;;;5135937;27;20107;-67
2022/01/31 04:41:02;;;;;;;18.45;3.45;;;4.10;69.60;;;;;;5135117;27;20061;-67
2022/01/31 04:43:28;;;;;;;15.02;3.40;;;4.20;70.10;;;;;;5135655;27;20083;-67
2022/01/31 04:45:56;;;;;;;16.88;3.13;;;4.20;70.40;;;;;;5135127;27;20106;-66
2022/01/31 04:48:21;;;;;;;16.80;3.65;;;4.20;70.60;;;;;;5135541;27;20023;-67
2022/01/31 04:50:47;;;;;;;12.80;3.00;;;4.20;70.90;;;;;;5116080;27;20024;-67
2022/01/31 04:53:14;;;;;;;17.25;3.35;;;4.20;71.00;;;;;;5135307;27;20034;-67
2022/01/31 04:55:40;;;;;;;16.15;3.35;;;4.20;71.70;;;;;;5135196;27;20444;-67
2022/01/31 04:58:07;;;;;;;12.65;2.50;;;4.20;71.90;;;;;;5122538;27;20039;-67
2022/01/31 05:00:33;;;;;;;20.10;3.92;;;4.20;72.30;;;;;;5114690;28;20107;-67
2022/01/31 05:03:00;;;;;;;15.00;3.10;;;4.20;72.60;;;;;;5114051;28;20508;-67
2022/01/31 05:05:26;;;;;;;12.80;2.65;;;4.20;72.80;;;;;;5114604;28;20024;-67
2022/01/31 05:07:54;;;;;;;13.93;2.90;;;4.20;73.10;;;;;;5113973;28;20028;-68
2022/01/31 05:10:20;;;;;;;13.43;2.70;;;4.20;73.20;;;;;;5113880;28;20089;-67
2022/01/31 05:12:46;;;;;;;15.05;3.20;;;4.20;73.30;;;;;;5114719;28;20027;-67
2022/01/31 05:15:12;;;;;;;13.32;3.00;;;4.20;73.20;;;;;;5113646;28;20054;-67
2022/01/31 05:17:37;;;;;;;13.52;3.13;;;4.20;73.30;;;;;;5114632;28;20044;-67
2022/01/31 05:20:04;;;;;;;14.80;3.17;;;4.20;73.30;;;;;;5113893;28;20406;-67
2022/01/31 05:22:30;;;;;;;13.77;3.28;;;4.20;73.30;;;;;;5114431;28;20096;-66
2022/01/31 05:24:56;;;;;;;16.48;3.90;;;4.20;73.30;;;;;;5113563;28;20402;-67
2022/01/31 05:27:21;;;;;;;18.50;3.75;;;4.20;73.20;;;;;;5129744;27;20031;-67
2022/01/31 05:29:47;;;;;;;20.30;3.40;;;4.20;72.90;;;;;;5135035;27;20028;-68
2022/01/31 05:32:13;;;;;;;16.70;3.00;;;4.20;72.90;;;;;;5134321;27;20336;-67
2022/01/31 05:34:38;;;;;;;12.68;2.95;;;4.20;73.30;;;;;;5134614;27;20125;-67
2022/01/31 05:37:04;;;;;;;17.25;3.05;;;4.20;72.50;;;;;;5115668;27;20059;-67
2022/01/31 05:39:30;;;;;;;12.93;3.08;;;4.20;72.60;;;;;;5134722;27;20019;-68
2022/01/31 05:41:56;;;;;;;12.63;2.40;;;4.20;72.60;;;;;;5134100;27;20463;-67
2022/01/31 05:44:23;;;;;;;12.02;3.33;;;4.20;72.80;;;;;;5134080;27;20039;-67
2022/01/31 05:46:49;;;;;;;15.43;3.33;;;4.20;72.70;;;;;;5134669;27;20019;-69
2022/01/31 05:49:14;;;;;;;15.45;2.92;;;4.20;72.80;;;;;;5134277;27;20589;-68
2022/01/31 05:51:54;;;;;;;12.30;3.05;;;4.20;73.00;;;;;;5134383;27;20054;-68
2022/01/31 05:54:21;;;;;;;10.68;3.05;;;4.20;72.90;;;;;;5134751;27;20348;-67
2022/01/31 05:56:47;;;;;;;19.95;4.05;;;4.20;72.90;;;;;;5134517;27;20047;-68
2022/01/31 05:59:12;;;;;;;13.68;3.45;;;4.20;72.70;;;;;;5133522;27;20486;-67
2022/01/31 06:01:39;;;;;;;17.50;3.63;;;4.30;72.50;;;;;;5134128;27;20031;-67
2022/01/31 06:04:06;;;;;;;14.43;3.20;;;4.30;72.30;;;;;;5133708;27;20027;-67
2022/01/31 06:06:31;;;;;;;16.35;3.22;;;4.30;72.30;;;;;;5134158;27;20019;-67
2022/01/31 06:08:57;;;;;;;18.23;3.67;;;4.30;72.10;;;;;;5133639;27;20440;-67
2022/01/31 06:11:22;;;;;;;12.77;3.55;;;4.30;72.00;;;;;;5115515;27;20023;-67
2022/01/31 06:13:48;;;;;;;13.55;3.13;;;4.30;72.10;;;;;;5133852;27;20110;-67
2022/01/31 06:16:14;;;;;;;10.80;2.92;;;4.30;72.20;;;;;;5133283;27;20027;-67
2022/01/31 06:18:39;;;;;;;11.52;2.75;;;4.30;72.20;;;;;;5133879;27;20027;-67
2022/01/31 06:21:05;;;;;;;18.02;3.42;;;4.30;72.10;;;;;;5133306;27;20019;-67
2022/01/31 06:23:31;;;;;;;8.80;2.85;;;4.30;72.20;;;;;;5133805;27;20088;-67
2022/01/31 06:25:56;;;;;;;16.45;2.97;;;4.30;72.10;;;;;;5133233;27;20027;-68
2022/01/31 06:28:23;;;;;;;19.00;3.40;;;4.30;72.30;;;;;;5133622;27;20405;-68
2022/01/31 06:30:49;;;;;;;17.33;3.38;;;4.30;72.20;;;;;;5133604;27;20343;-67
2022/01/31 06:33:16;;;;;;;11.70;2.97;;;4.40;72.20;;;;;;5131947;27;20026;-68
2022/01/31 06:35:44;;;;;;;13.93;3.50;;;4.40;72.40;;;;;;5133409;27;20106;-68
2022/01/31 06:38:10;;;;;;;15.15;3.30;;;4.50;72.10;;;;;;5132772;27;20024;-68
2022/01/31 06:40:35;;;;;;;12.70;3.22;;;4.40;71.80;;;;;;5133436;27;20361;-68
2022/01/31 06:43:01;;;;;;;15.10;3.15;;;4.40;71.60;;;;;;5132533;27;20119;-68
2022/01/31 06:45:26;;;;;;;16.20;3.58;;;4.50;71.30;;;;;;5133163;27;20047;-69
2022/01/31 06:47:52;;;;;;;15.57;3.22;;;4.50;71.30;;;;;;5133433;27;20023;-69
2022/01/31 06:50:18;;;;;;;13.10;3.38;;;4.60;71.20;;;;;;5132522;27;20368;-68
2022/01/31 06:52:44;;;;;;;12.05;2.67;;;4.50;71.00;;;;;;5133308;27;20027;-67
2022/01/31 06:55:19;;;;;;;10.45;3.10;;;4.50;70.80;;;;;;5121132;27;20089;-67
2022/01/31 06:57:44;;;;;;;10.20;3.00;;;4.60;70.80;;;;;;5112523;28;20020;-68
2022/01/31 07:00:12;;;;;;;13.18;3.55;;;4.60;70.80;;;;;;5112100;28;20428;-68
2022/01/31 07:02:38;;;;;;;15.52;2.97;;;4.60;70.90;;;;;;5112658;28;20118;-68
2022/01/31 07:05:05;;;;;;;16.42;3.53;;;4.60;70.60;;;;;;5112067;28;20403;-68
2022/01/31 07:07:30;;;;;;;14.00;4.22;;;4.60;70.50;;;;;;5112688;28;20080;-68
2022/01/31 07:09:56;;;;;;;15.57;4.22;;;4.60;70.70;;;;;;5111867;28;20095;-67
2022/01/31 07:12:29;;;;;;;18.63;4.60;;;4.60;70.60;;;;;;5112651;28;20055;-68
2022/01/31 07:14:54;;;;;;;12.88;4.22;;;4.60;70.80;;;;;;5112685;28;20046;-68
2022/01/31 07:17:20;;;;;;;14.75;3.80;;;4.60;71.20;;;;;;5111938;28;20460;-67
2022/01/31 07:19:46;;;;;;;16.92;3.47;;;4.60;71.00;;;;;;5112661;28;20031;-68
2022/01/31 07:22:14;;;;;;;19.33;3.47;;;4.60;71.00;;;;;;5111414;28;20042;-68
2022/01/31 07:27:05;;;;;;;13.70;3.90;;;4.60;70.80;;;;;;5132190;28;20023;-68
2022/01/31 07:29:31;;;;;;;14.55;3.88;;;4.70;71.10;;;;;;5133027;28;20028;-68
2022/01/31 07:31:58;;;;;;;12.57;3.72;;;4.70;70.90;;;;;;5133175;27;20029;-68
2022/01/31 07:34:25;;;;;;;11.98;3.72;;;4.70;70.90;;;;;;5136895;27;20030;-68
2022/01/31 07:36:51;;;;;;;12.50;3.40;;;4.80;71.20;;;;;;5137134;27;20126;-68
2022/01/31 07:39:18;;;;;;;12.75;3.17;;;4.80;70.60;;;;;;5136518;27;20027;-68
2022/01/31 07:41:44;;;;;;;13.13;3.55;;;4.80;70.30;;;;;;5137003;27;20106;-68
2022/01/31 07:44:11;;;;;;;18.80;3.47;;;4.80;70.00;;;;;;5136350;27;20204;-68
2022/01/31 07:46:37;;;;;;;12.20;3.03;;;4.80;69.60;;;;;;5136453;27;20036;-68
2022/01/31 07:49:04;;;;;;;15.18;3.28;;;4.80;69.60;;;;;;5136151;27;20023;-68
2022/01/31 07:51:30;;;;;;;13.48;3.30;;;4.80;69.70;;;;;;5136766;27;20023;-68
2022/01/31 07:53:55;;;;;;;14.23;2.95;;;4.90;70.10;;;;;;5136590;27;20360;-68
2022/01/31 07:56:21;;;;;;;11.40;2.95;;;4.90;69.90;;;;;;5136133;27;20050;-69
2022/01/31 07:58:47;;;;;;;13.38;3.10;;;4.90;69.70;;;;;;5136355;27;20035;-68
2022/01/31 08:01:13;;;;;;;13.45;3.33;;;4.90;70.00;;;;;;5135933;27;20110;-68
2022/01/31 08:03:40;;;;;;;13.70;3.38;;;4.90;69.90;;;;;;5136522;27;20031;-68
2022/01/31 08:06:07;;;;;;;17.33;3.55;;;5.00;69.40;;;;;;5135861;27;20135;-68
2022/01/31 08:08:34;;;;;;;16.75;3.58;;;5.00;69.40;;;;;;5136442;27;20368;-68
2022/01/31 08:11:02;;;;;;;12.65;3.20;;;5.00;69.50;;;;;;5136392;27;20023;-67
2022/01/31 08:13:28;;;;;;;10.65;3.28;;;4.90;69.70;;;;;;5136476;27;20436;-67
2022/01/31 08:18:33;;;;;;;16.05;4.70;;;5.10;69.50;;;;;;5136124;27;20030;-67
2022/01/31 08:20:59;;;;;;;16.55;4.40;;;5.10;69.10;;;;;;5136409;27;20028;-69
2022/01/31 08:23:25;;;;;;;16.60;4.07;;;5.10;69.10;;;;;;5135413;27;20042;-68
2022/01/31 08:25:51;;;;;;;32.92;4.93;;;5.20;69.20;;;;;;5135972;27;20106;-69
2022/01/31 08:28:21;;;;;;;18.33;4.43;;;5.20;68.90;;;;;;5135315;27;20039;-69
2022/01/31 08:33:25;;;;;;;14.02;4.53;;;5.20;68.60;;;;;;5135381;27;20031;-69
2022/01/31 08:35:51;;;;;;;20.60;4.47;;;5.20;68.60;;;;;;5135845;27;20429;-68
2022/01/31 08:38:18;;;;;;;16.02;4.30;;;5.20;68.60;;;;;;5135228;27;20118;-68
2022/01/31 08:40:45;;;;;;;15.38;3.47;;;5.20;69.00;;;;;;5117185;27;20062;-68
2022/01/31 08:43:14;;;;;;;18.30;4.00;;;5.10;69.20;;;;;;5134351;27;20027;-68
2022/01/31 08:45:40;;;;;;;17.52;3.75;;;5.10;69.50;;;;;;5135096;27;20026;-68
2022/01/31 08:48:05;;;;;;;17.60;3.97;;;5.10;69.60;;;;;;5134649;27;20023;-69
2022/01/31 08:50:31;;;;;;;16.95;4.22;;;5.10;70.00;;;;;;5135540;27;20113;-68
2022/01/31 08:52:57;;;;;;;16.02;4.80;;;5.10;69.90;;;;;;5135567;27;20034;-69
2022/01/31 08:55:24;;;;;;;17.85;4.50;;;5.10;69.90;;;;;;5134827;27;20498;-69
2022/01/31 08:57:53;;;;;;;18.77;4.53;;;5.10;70.10;;;;;;5133472;27;20080;-68
2022/01/31 09:00:20;;;;;;;19.98;4.05;;;5.10;70.30;;;;;;5134630;27;20031;-68
2022/01/31 09:03:01;;;;;;;16.77;4.30;;;5.10;70.10;;;;;;5135333;27;20042;-68
2022/01/31 09:05:27;;;;;;;20.10;4.72;;;5.10;70.50;;;;;;5135112;27;20043;-67
2022/01/31 09:07:52;;;;;;;18.52;4.47;;;5.10;70.60;;;;;;5135398;27;20027;-68
2022/01/31 09:10:18;;;;;;;19.60;4.55;;;5.00;70.20;;;;;;5134417;27;20027;-68
2022/01/31 09:12:45;;;;;;;21.55;6.10;;;5.10;70.70;;;;;;5135308;27;20042;-67
2022/01/31 09:15:12;;;;;;;22.35;4.53;;;5.10;70.60;;;;;;5134425;27;20383;-67
2022/01/31 09:17:39;;;;;;;21.08;4.93;;;5.10;70.30;;;;;;5135052;27;20031;-68
2022/01/31 09:20:06;;;;;;;21.75;4.32;;;5.10;70.50;;;;;;5135069;27;20030;-69
2022/01/31 09:22:33;;;;;;;14.82;4.10;;;5.10;70.00;;;;;;5134401;27;20494;-68
2022/01/31 09:24:58;;;;;;;24.38;4.07;;;5.10;69.70;;;;;;5134879;27;20042;-68
2022/01/31 09:27:24;;;;;;;15.48;4.43;;;5.10;70.10;;;;;;5134254;27;20023;-68
2022/01/31 09:29:50;;;;;;;21.65;4.72;;;5.00;69.90;;;;;;5134855;27;20027;-68
2022/01/31 09:32:21;;;;;;;20.50;4.38;;;5.00;70.30;;;;;;5134258;27;20058;-68
2022/01/31 09:34:47;;;;;;;22.48;4.10;;;5.00;70.20;;;;;;5134443;27;20535;-68
2022/01/31 09:37:12;;;;;;;18.05;3.80;;;4.90;70.30;;;;;;5133996;27;20023;-68
2022/01/31 09:39:38;;;;;;;21.02;5.13;;;5.00;70.40;;;;;;5134787;27;20353;-67
2022/01/31 09:42:08;;;;;;;19.20;4.15;;;4.90;70.20;;;;;;5134582;27;20046;-68
2022/01/31 09:47:22;;;;;;;16.85;4.40;;;4.90;70.90;;;;;;5133932;27;20368;-68
2022/01/31 09:49:49;;;;;;;19.17;4.50;;;5.00;71.20;;;;;;5134414;27;20034;-68
2022/01/31 09:52:15;;;;;;;23.42;4.95;;;5.00;71.20;;;;;;5133471;27;20031;-68
2022/01/31 09:54:42;;;;;;;24.25;4.63;;;5.10;70.70;;;;;;5133419;27;20027;-68
2022/01/31 09:57:08;;;;;;;18.45;4.22;;;5.10;70.50;;;;;;5133769;27;20537;-68
2022/01/31 09:59:34;;;;;;;19.42;4.53;;;5.10;70.30;;;;;;5134185;27;20092;-68
2022/01/31 10:02:12;;;;;;;14.95;3.58;;;5.00;69.90;;;;;;5134403;27;20123;-68
2022/01/31 10:04:47;;;;;;;13.60;3.53;;;5.00;70.50;;;;;;5134380;27;20394;-68
2022/01/31 10:07:14;;;;;;;19.83;4.00;;;5.00;70.60;;;;;;5133480;27;20080;-69
2022/01/31 10:09:43;;;;;;;14.95;4.45;;;5.00;70.80;;;;;;5134097;27;20054;-69
2022/01/31 10:17:44;;;;;;;15.32;4.40;;;5.00;70.40;;;;;;5133604;27;20513;-68
2022/01/31 10:20:19;;;;;;;13.27;3.45;;;5.00;70.20;;;;;;5114869;27;20030;-68
2022/01/31 10:22:46;;;;;;;19.25;3.88;;;5.10;70.40;;;;;;5133870;27;20425;-68
2022/01/31 10:25:16;;;;;;;15.55;4.00;;;5.10;70.30;;;;;;5133200;27;20460;-68
2022/01/31 10:27:54;;;;;;;22.92;4.45;;;5.10;70.30;;;;;;5133998;27;20019;-69
2022/01/31 10:30:24;;;;;;;14.95;3.88;;;5.10;70.50;;;;;;5133519;27;20027;-69
2022/01/31 10:32:51;;;;;;;16.35;3.85;;;5.10;70.80;;;;;;5133900;27;20374;-69
2022/01/31 10:35:25;;;;;;;18.45;4.20;;;5.10;70.40;;;;;;5132974;27;20088;-68
2022/01/31 10:38:02;;;;;;;16.10;3.67;;;5.20;70.40;;;;;;5115238;27;20503;-68
2022/01/31 10:46:22;;;;;;;14.60;4.35;;;5.30;69.60;;;;;;5133245;27;20516;-68
2022/01/31 10:57:16;;;;;;;18.63;4.82;;;5.30;69.70;;;;;;5112839;28;20077;-68
2022/01/31 10:59:44;;;;;;;25.80;5.07;;;5.40;69.60;;;;;;5113060;28;20028;-69
2022/01/31 11:02:19;;;;;;;22.00;4.57;;;5.40;70.00;;;;;;5112440;28;20115;-68
2022/01/31 11:04:46;;;;;;;15.40;4.05;;;5.40;69.50;;;;;;5112571;28;20016;-68
2022/01/31 11:07:15;;;;;;;14.10;3.97;;;5.30;69.30;;;;;;5111683;28;20030;-69
2022/01/31 11:09:43;;;;;;;16.45;4.10;;;5.30;69.10;;;;;;5112139;28;20023;-69
2022/01/31 11:12:10;;;;;;;20.92;4.70;;;5.30;69.30;;;;;;5112630;28;20035;-69
2022/01/31 11:14:41;;;;;;;15.27;4.10;;;5.30;69.80;;;;;;5111598;28;20027;-69
2022/01/31 11:17:10;;;;;;;18.85;5.35;;;5.30;69.80;;;;;;5112383;28;20024;-69
2022/01/31 11:19:37;;;;;;;21.55;4.53;;;5.30;69.90;;;;;;5111784;28;20036;-67
2022/01/31 11:22:08;;;;;;;16.23;4.90;;;5.30;70.30;;;;;;5112400;28;20032;-68
2022/01/31 11:24:42;;;;;;;14.50;4.03;;;5.30;70.30;;;;;;5121669;28;20290;-67
2022/01/31 11:27:11;;;;;;;15.02;4.63;;;5.30;70.30;;;;;;5132872;28;20127;-68
2022/01/31 11:29:41;;;;;;;18.33;4.28;;;5.30;70.40;;;;;;5132079;28;20409;-68
2022/01/31 11:32:08;;;;;;;15.60;4.10;;;5.30;70.50;;;;;;5114127;28;20414;-68
2022/01/31 11:34:39;;;;;;;18.15;4.15;;;5.40;70.20;;;;;;5132077;28;20464;-68
2022/01/31 11:37:07;;;;;;;16.52;4.07;;;5.40;70.20;;;;;;5132778;28;20023;-67
2022/01/31 11:39:34;;;;;;;17.67;4.45;;;5.40;69.90;;;;;;5132062;28;20038;-68
2022/01/31 11:42:02;;;;;;;14.13;4.28;;;5.50;69.90;;;;;;5132581;28;20027;-68
2022/01/31 11:44:57;;;;;;;18.33;4.40;;;5.50;69.60;;;;;;5132048;28;20085;-68
2022/01/31 11:47:24;;;;;;;17.42;4.78;;;5.50;69.50;;;;;;5131850;28;20091;-68
2022/01/31 11:49:55;;;;;;;21.48;5.03;;;5.50;70.20;;;;;;5132645;28;20083;-67
2022/01/31 11:52:23;;;;;;;14.40;3.97;;;5.60;70.70;;;;;;5131633;28;20027;-68
2022/01/31 11:55:02;;;;;;;18.45;4.80;;;5.60;70.10;;;;;;5132326;27;20047;-68
2022/01/31 11:57:29;;;;;;;13.30;4.60;;;5.70;70.40;;;;;;5131870;28;20030;-68
2022/01/31 12:00:00;;;;;;;21.08;4.53;;;5.80;70.30;;;;;;5132026;28;20033;-67
2022/01/31 12:02:31;;;;;;;15.00;4.40;;;5.80;70.70;;;;;;5131479;28;20035;-67
2022/01/31 12:05:05;;;;;;;19.02;4.47;;;5.90;69.70;;;;;;5114176;28;20352;-67
2022/01/31 12:07:42;;;;;;;17.98;5.10;;;6.00;69.70;;;;;;5131884;28;20023;-68
2022/01/31 12:10:19;;;;;;;14.32;4.35;;;6.10;69.30;;;;;;5132356;28;20241;-69
2022/01/31 12:23:55;;;;;;;14.80;4.13;;;6.30;69.30;;;;;;5135779;27;20119;-68
2022/01/31 12:26:35;;;;;;;14.82;4.65;;;6.20;69.60;;;;;;5135099;27;20027;-68
2022/01/31 12:29:08;;;;;;;8.70;3.58;;;6.30;70.30;;;;;;5136038;27;20107;-69
2022/01/31 12:31:34;;;;;;;9.23;2.70;;;6.30;71.80;;;;;;5116891;27;20356;-68
2022/01/31 12:34:00;;;;;;;4.18;2.20;;;6.40;76.00;;;;;;5136098;27;20034;-69
2022/01/31 12:36:35;;;;;;;6.47;2.78;;;6.40;78.90;;;;;;5135277;27;20034;-69
2022/01/31 12:39:24;;;;;;;3.72;2.08;;;6.50;78.90;;;;;;5135594;27;20435;-68
2022/01/31 12:41:59;;;;;;;4.13;1.80;;;6.50;80.50;;;;;;5135649;27;20034;-68
2022/01/31 12:44:36;;;;;;;3.88;2.10;;;6.50;81.30;;;;;;5123341;27;20102;-68
2022/01/31 12:47:17;;;;;;;4.57;1.58;;;6.50;81.90;;;;;;5115229;28;20027;-67
2022/01/31 12:49:44;;;;;;;3.70;1.73;;;6.50;82.70;;;;;;5114586;28;20032;-68
2022/01/31 12:52:10;;;;;;;3.25;1.77;;;6.50;83.80;;;;;;5114882;28;20032;-68
2022/01/31 12:54:40;;;;;;;5.18;1.77;;;6.50;84.30;;;;;;5114142;28;20026;-69
2022/01/31 12:57:13;;;;;;;5.50;1.92;;;6.50;85.20;;;;;;5114762;28;20039;-69
2022/01/31 12:59:40;;;;;;;3.08;1.50;;;6.50;84.80;;;;;;5114294;28;20417;-68
2022/01/31 13:02:09;;;;;;;3.30;1.58;;;6.50;85.90;;;;;;5114944;28;20036;-69
2022/01/31 13:04:35;;;;;;;3.53;1.80;;;6.50;86.40;;;;;;5114260;28;20074;-68
2022/01/31 13:07:08;;;;;;;2.75;1.60;;;6.50;87.00;;;;;;5114769;28;20028;-68
2022/01/31 13:09:38;;;;;;;2.55;1.30;;;6.50;87.00;;;;;;5114169;28;20428;-68
2022/01/31 13:12:15;;;;;;;2.53;1.30;;;6.50;87.60;;;;;;5114943;28;20028;-69
2022/01/31 13:14:52;;;;;;;2.65;1.23;;;6.50;87.60;;;;;;5114267;28;20036;-69
2022/01/31 13:17:20;;;;;;;2.47;1.33;;;6.50;88.10;;;;;;5114748;28;20053;-68
2022/01/31 13:19:55;;;;;;;1.52;0.90;;;6.60;88.40;;;;;;5113738;28;20020;-69
2022/01/31 13:22:32;;;;;;;1.50;1.13;;;6.50;89.00;;;;;;5114615;28;20036;-68
2022/01/31 13:25:02;;;;;;;1.95;1.08;;;6.50;89.70;;;;;;5114788;28;20115;-67
2022/01/31 13:27:36;;;;;;;3.88;1.10;;;6.50;90.50;;;;;;5113994;28;20068;-68
2022/01/31 13:30:07;;;;;;;2.40;1.10;;;6.50;90.70;;;;;;5113207;28;20031;-68
2022/01/31 13:32:53;;;;;;;1.20;0.88;;;6.50;91.10;;;;;;5113768;28;20110;-68
2022/01/31 13:35:21;;;;;;;1.73;0.98;;;6.50;91.10;;;;;;5134237;27;20027;-68